sensor_id;sensor_type;location;lat;lon;timestamp;temperature;humidity
22544;DHT22;11438;52.044;8.716;2022-10-31T00:00:59;18.00;95.60
22544;DHT22;11438;52.044;8.716;2022-10-31T00:03:24;18.00;95.60
22544;DHT22;11438;52.044;8.716;2022-10-31T00:05:51;17.90;95.70
22544;DHT22;11438;52.044;8.716;2022-10-31T00:08:17;17.90;95.70
22544;DHT22;11438;52.044;8.716;2022-10-31T00:10:44;17.90;95.70
22544;DHT22;11438;52.044;8.716;2022-10-31T00:13:11;17.90;95.80
22544;DHT22;11438;52.044;8.716;2022-10-31T00:15:38;17.90;95.80
22544;DHT22;11438;52.044;8.716;2022-10-31T00:18:05;17.90;95.80
22544;DHT22;11438;52.044;8.716;2022-10-31T00:20:31;17.90;95.80
22544;DHT22;11438;52.044;8.716;2022-10-31T00:23:01;17.90;95.90
22544;DHT22;11438;52.044;8.716;2022-10-31T00:25:28;17.80;95.90
22544;DHT22;11438;52.044;8.716;2022-10-31T00:27:54;17.80;95.90
22544;DHT22;11438;52.044;8.716;2022-10-31T00:30:20;17.80;95.90
22544;DHT22;11438;52.044;8.716;2022-10-31T00:32:45;17.80;95.90
22544;DHT22;11438;52.044;8.716;2022-10-31T00:35:11;17.70;95.90
22544;DHT22;11438;52.044;8.716;2022-10-31T00:37:36;17.70;95.80
22544;DHT22;11438;52.044;8.716;2022-10-31T00:40:02;17.70;95.70
22544;DHT22;11438;52.044;8.716;2022-10-31T00:42:28;17.70;95.70
22544;DHT22;11438;52.044;8.716;2022-10-31T00:44:53;17.70;95.60
22544;DHT22;11438;52.044;8.716;2022-10-31T00:47:19;17.60;95.60
22544;DHT22;11438;52.044;8.716;2022-10-31T00:49:44;17.60;95.60
22544;DHT22;11438;52.044;8.716;2022-10-31T00:52:10;17.60;95.50
22544;DHT22;11438;52.044;8.716;2022-10-31T00:54:36;17.50;95.50
22544;DHT22;11438;52.044;8.716;2022-10-31T00:57:01;17.50;95.50
22544;DHT22;11438;52.044;8.716;2022-10-31T00:59:27;17.50;95.50
22544;DHT22;11438;52.044;8.716;2022-10-31T01:01:52;17.40;95.50
22544;DHT22;11438;52.044;8.716;2022-10-31T01:04:18;17.40;95.50
22544;DHT22;11438;52.044;8.716;2022-10-31T01:06:43;17.30;95.50
22544;DHT22;11438;52.044;8.716;2022-10-31T01:09:09;17.30;95.50
22544;DHT22;11438;52.044;8.716;2022-10-31T01:11:34;17.30;95.50
22544;DHT22;11438;52.044;8.716;2022-10-31T01:14:00;17.20;95.40
22544;DHT22;11438;52.044;8.716;2022-10-31T01:16:26;17.20;95.40
22544;DHT22;11438;52.044;8.716;2022-10-31T01:18:52;17.10;95.50
22544;DHT22;11438;52.044;8.716;2022-10-31T01:21:19;17.10;95.50
22544;DHT22;11438;52.044;8.716;2022-10-31T01:23:45;17.00;95.50
22544;DHT22;11438;52.044;8.716;2022-10-31T01:26:12;17.00;95.40
22544;DHT22;11438;52.044;8.716;2022-10-31T01:28:47;17.00;95.40
22544;DHT22;11438;52.044;8.716;2022-10-31T01:31:14;16.90;95.40
22544;DHT22;11438;52.044;8.716;2022-10-31T01:33:40;16.90;95.50
22544;DHT22;11438;52.044;8.716;2022-10-31T01:36:15;16.90;95.50
22544;DHT22;11438;52.044;8.716;2022-10-31T01:38:41;16.80;95.50
22544;DHT22;11438;52.044;8.716;2022-10-31T01:41:08;16.70;95.50
22544;DHT22;11438;52.044;8.716;2022-10-31T01:43:46;16.70;95.40
22544;DHT22;11438;52.044;8.716;2022-10-31T01:46:12;16.70;95.50
22544;DHT22;11438;52.044;8.716;2022-10-31T01:48:39;16.70;95.50
22544;DHT22;11438;52.044;8.716;2022-10-31T01:51:06;16.60;95.50
22544;DHT22;11438;52.044;8.716;2022-10-31T01:53:32;16.60;95.60
22544;DHT22;11438;52.044;8.716;2022-10-31T01:55:59;16.50;95.60
22544;DHT22;11438;52.044;8.716;2022-10-31T01:58:28;16.50;95.70
22544;DHT22;11438;52.044;8.716;2022-10-31T02:00:59;16.50;95.60
22544;DHT22;11438;52.044;8.716;2022-10-31T02:03:25;16.50;95.40
22544;DHT22;11438;52.044;8.716;2022-10-31T02:05:53;16.40;95.40
22544;DHT22;11438;52.044;8.716;2022-10-31T02:08:31;16.40;95.40
22544;DHT22;11438;52.044;8.716;2022-10-31T02:10:58;16.40;95.50
22544;DHT22;11438;52.044;8.716;2022-10-31T02:13:25;16.30;95.50
22544;DHT22;11438;52.044;8.716;2022-10-31T02:15:56;16.30;95.60
22544;DHT22;11438;52.044;8.716;2022-10-31T02:18:23;16.30;95.70
22544;DHT22;11438;52.044;8.716;2022-10-31T02:24:18;16.20;95.80
22544;DHT22;11438;52.044;8.716;2022-10-31T02:27:11;16.20;95.90
22544;DHT22;11438;52.044;8.716;2022-10-31T02:32:54;16.20;95.60
22544;DHT22;11438;52.044;8.716;2022-10-31T02:38:22;16.10;95.80
22544;DHT22;11438;52.044;8.716;2022-10-31T02:41:00;16.00;95.70
22544;DHT22;11438;52.044;8.716;2022-10-31T02:43:35;16.10;95.80
22544;DHT22;11438;52.044;8.716;2022-10-31T02:48:34;16.00;95.80
22544;DHT22;11438;52.044;8.716;2022-10-31T02:51:04;16.00;95.90
22544;DHT22;11438;52.044;8.716;2022-10-31T02:53:36;16.00;95.80
22544;DHT22;11438;52.044;8.716;2022-10-31T02:56:17;15.90;95.80
22544;DHT22;11438;52.044;8.716;2022-10-31T02:58:58;16.00;95.80
22544;DHT22;11438;52.044;8.716;2022-10-31T03:01:50;16.00;95.70
22544;DHT22;11438;52.044;8.716;2022-10-31T03:09:56;15.90;95.70
22544;DHT22;11438;52.044;8.716;2022-10-31T03:12:39;15.80;95.90
22544;DHT22;11438;52.044;8.716;2022-10-31T03:15:17;15.80;95.90
22544;DHT22;11438;52.044;8.716;2022-10-31T03:17:53;15.80;96.00
22544;DHT22;11438;52.044;8.716;2022-10-31T03:20:26;15.80;96.10
22544;DHT22;11438;52.044;8.716;2022-10-31T03:22:55;15.80;96.20
22544;DHT22;11438;52.044;8.716;2022-10-31T03:25:22;15.80;96.20
22544;DHT22;11438;52.044;8.716;2022-10-31T03:27:49;15.80;96.30
22544;DHT22;11438;52.044;8.716;2022-10-31T03:30:16;15.90;96.30
22544;DHT22;11438;52.044;8.716;2022-10-31T03:32:49;15.90;96.40
22544;DHT22;11438;52.044;8.716;2022-10-31T03:35:18;15.90;96.40
22544;DHT22;11438;52.044;8.716;2022-10-31T03:37:45;16.00;96.40
22544;DHT22;11438;52.044;8.716;2022-10-31T03:40:12;15.90;96.40
22544;DHT22;11438;52.044;8.716;2022-10-31T03:42:42;16.00;96.40
22544;DHT22;11438;52.044;8.716;2022-10-31T03:45:14;16.00;96.40
22544;DHT22;11438;52.044;8.716;2022-10-31T03:47:42;16.00;96.40
22544;DHT22;11438;52.044;8.716;2022-10-31T03:50:09;16.10;96.40
22544;DHT22;11438;52.044;8.716;2022-10-31T03:53:10;16.10;96.30
22544;DHT22;11438;52.044;8.716;2022-10-31T03:55:48;16.10;96.30
22544;DHT22;11438;52.044;8.716;2022-10-31T03:58:36;16.10;96.20
22544;DHT22;11438;52.044;8.716;2022-10-31T04:01:05;16.10;96.10
22544;DHT22;11438;52.044;8.716;2022-10-31T04:03:34;16.10;96.00
22544;DHT22;11438;52.044;8.716;2022-10-31T04:06:05;16.00;96.00
22544;DHT22;11438;52.044;8.716;2022-10-31T04:08:39;16.00;95.90
22544;DHT22;11438;52.044;8.716;2022-10-31T04:11:08;16.00;95.90
22544;DHT22;11438;52.044;8.716;2022-10-31T04:13:37;15.90;95.90
22544;DHT22;11438;52.044;8.716;2022-10-31T04:16:04;15.90;95.90
22544;DHT22;11438;52.044;8.716;2022-10-31T04:18:30;15.90;95.90
22544;DHT22;11438;52.044;8.716;2022-10-31T04:21:04;15.80;95.80
22544;DHT22;11438;52.044;8.716;2022-10-31T04:23:30;15.80;95.80
22544;DHT22;11438;52.044;8.716;2022-10-31T04:25:56;15.80;95.90
22544;DHT22;11438;52.044;8.716;2022-10-31T04:28:22;15.70;95.80
22544;DHT22;11438;52.044;8.716;2022-10-31T04:30:48;15.70;95.90
22544;DHT22;11438;52.044;8.716;2022-10-31T04:33:13;15.60;95.90
22544;DHT22;11438;52.044;8.716;2022-10-31T04:35:39;15.60;95.90
22544;DHT22;11438;52.044;8.716;2022-10-31T04:38:05;15.60;95.90
22544;DHT22;11438;52.044;8.716;2022-10-31T04:40:30;15.60;95.90
22544;DHT22;11438;52.044;8.716;2022-10-31T04:42:56;15.60;95.90
22544;DHT22;11438;52.044;8.716;2022-10-31T04:45:22;15.50;95.90
22544;DHT22;11438;52.044;8.716;2022-10-31T04:47:47;15.50;95.90
22544;DHT22;11438;52.044;8.716;2022-10-31T04:50:13;15.50;95.90
22544;DHT22;11438;52.044;8.716;2022-10-31T04:52:43;15.50;96.00
22544;DHT22;11438;52.044;8.716;2022-10-31T04:55:09;15.40;95.90
22544;DHT22;11438;52.044;8.716;2022-10-31T04:57:45;15.40;95.90
22544;DHT22;11438;52.044;8.716;2022-10-31T05:00:12;15.40;95.90
22544;DHT22;11438;52.044;8.716;2022-10-31T05:02:43;15.40;95.90
22544;DHT22;11438;52.044;8.716;2022-10-31T05:05:09;15.30;95.90
22544;DHT22;11438;52.044;8.716;2022-10-31T05:07:39;15.30;95.90
22544;DHT22;11438;52.044;8.716;2022-10-31T05:10:05;15.30;95.90
22544;DHT22;11438;52.044;8.716;2022-10-31T05:12:31;15.30;95.90
22544;DHT22;11438;52.044;8.716;2022-10-31T05:14:56;15.20;95.90
22544;DHT22;11438;52.044;8.716;2022-10-31T05:17:22;15.30;95.90
22544;DHT22;11438;52.044;8.716;2022-10-31T05:19:47;15.20;95.90
22544;DHT22;11438;52.044;8.716;2022-10-31T05:22:13;15.20;95.90
22544;DHT22;11438;52.044;8.716;2022-10-31T05:24:38;15.20;95.90
22544;DHT22;11438;52.044;8.716;2022-10-31T05:27:04;15.20;95.90
22544;DHT22;11438;52.044;8.716;2022-10-31T05:29:29;15.10;95.90
22544;DHT22;11438;52.044;8.716;2022-10-31T05:31:58;15.10;95.90
22544;DHT22;11438;52.044;8.716;2022-10-31T05:34:24;15.10;95.90
22544;DHT22;11438;52.044;8.716;2022-10-31T05:36:49;15.10;95.90
22544;DHT22;11438;52.044;8.716;2022-10-31T05:39:15;15.10;95.80
22544;DHT22;11438;52.044;8.716;2022-10-31T05:41:41;15.00;95.80
22544;DHT22;11438;52.044;8.716;2022-10-31T05:44:06;15.00;95.80
22544;DHT22;11438;52.044;8.716;2022-10-31T05:46:32;15.00;95.80
22544;DHT22;11438;52.044;8.716;2022-10-31T05:48:57;15.00;95.80
22544;DHT22;11438;52.044;8.716;2022-10-31T05:51:23;14.90;95.80
22544;DHT22;11438;52.044;8.716;2022-10-31T05:53:48;14.90;95.80
22544;DHT22;11438;52.044;8.716;2022-10-31T05:56:14;14.90;95.80
22544;DHT22;11438;52.044;8.716;2022-10-31T05:58:39;14.90;95.90
22544;DHT22;11438;52.044;8.716;2022-10-31T06:01:05;14.90;96.00
22544;DHT22;11438;52.044;8.716;2022-10-31T06:03:30;14.80;95.90
22544;DHT22;11438;52.044;8.716;2022-10-31T06:05:56;14.80;95.90
22544;DHT22;11438;52.044;8.716;2022-10-31T06:08:22;14.80;95.90
22544;DHT22;11438;52.044;8.716;2022-10-31T06:10:47;14.80;96.00
22544;DHT22;11438;52.044;8.716;2022-10-31T06:13:13;14.80;96.00
22544;DHT22;11438;52.044;8.716;2022-10-31T06:15:38;14.80;96.10
22544;DHT22;11438;52.044;8.716;2022-10-31T06:18:05;14.70;96.10
22544;DHT22;11438;52.044;8.716;2022-10-31T06:20:32;14.70;96.10
22544;DHT22;11438;52.044;8.716;2022-10-31T06:22:58;14.70;96.10
22544;DHT22;11438;52.044;8.716;2022-10-31T06:25:24;14.70;96.20
22544;DHT22;11438;52.044;8.716;2022-10-31T06:27:50;14.70;96.10
22544;DHT22;11438;52.044;8.716;2022-10-31T06:30:15;14.70;96.10
22544;DHT22;11438;52.044;8.716;2022-10-31T06:32:41;14.70;96.10
22544;DHT22;11438;52.044;8.716;2022-10-31T06:35:06;14.70;96.10
22544;DHT22;11438;52.044;8.716;2022-10-31T06:37:32;14.70;96.10
22544;DHT22;11438;52.044;8.716;2022-10-31T06:39:58;14.70;96.10
22544;DHT22;11438;52.044;8.716;2022-10-31T06:42:23;14.70;96.20
22544;DHT22;11438;52.044;8.716;2022-10-31T06:44:49;14.60;96.20
22544;DHT22;11438;52.044;8.716;2022-10-31T06:47:14;14.60;96.30
22544;DHT22;11438;52.044;8.716;2022-10-31T06:49:40;14.60;96.30
22544;DHT22;11438;52.044;8.716;2022-10-31T06:52:05;14.70;96.40
22544;DHT22;11438;52.044;8.716;2022-10-31T06:54:31;14.60;96.30
22544;DHT22;11438;52.044;8.716;2022-10-31T06:56:56;14.60;96.20
22544;DHT22;11438;52.044;8.716;2022-10-31T06:59:22;14.60;96.30
22544;DHT22;11438;52.044;8.716;2022-10-31T07:01:49;14.60;96.40
22544;DHT22;11438;52.044;8.716;2022-10-31T07:04:15;14.60;96.50
22544;DHT22;11438;52.044;8.716;2022-10-31T07:06:41;14.60;96.50
22544;DHT22;11438;52.044;8.716;2022-10-31T07:09:06;14.70;96.50
22544;DHT22;11438;52.044;8.716;2022-10-31T07:11:32;14.70;96.60
22544;DHT22;11438;52.044;8.716;2022-10-31T07:13:58;14.70;96.50
22544;DHT22;11438;52.044;8.716;2022-10-31T07:16:23;14.70;96.60
22544;DHT22;11438;52.044;8.716;2022-10-31T07:18:49;14.70;96.60
22544;DHT22;11438;52.044;8.716;2022-10-31T07:21:15;14.70;96.60
22544;DHT22;11438;52.044;8.716;2022-10-31T07:23:41;14.70;96.60
22544;DHT22;11438;52.044;8.716;2022-10-31T07:26:07;14.70;96.70
22544;DHT22;11438;52.044;8.716;2022-10-31T07:28:32;14.80;96.80
22544;DHT22;11438;52.044;8.716;2022-10-31T07:30:58;14.80;96.80
22544;DHT22;11438;52.044;8.716;2022-10-31T07:33:24;14.80;96.80
22544;DHT22;11438;52.044;8.716;2022-10-31T07:35:54;14.80;97.20
22544;DHT22;11438;52.044;8.716;2022-10-31T07:38:22;14.90;97.00
22544;DHT22;11438;52.044;8.716;2022-10-31T07:40:51;15.00;97.10
22544;DHT22;11438;52.044;8.716;2022-10-31T07:43:18;14.90;97.20
22544;DHT22;11438;52.044;8.716;2022-10-31T07:45:44;15.00;97.30
22544;DHT22;11438;52.044;8.716;2022-10-31T07:48:13;15.00;97.40
22544;DHT22;11438;52.044;8.716;2022-10-31T07:50:39;15.10;97.50
22544;DHT22;11438;52.044;8.716;2022-10-31T07:53:10;15.10;97.60
22544;DHT22;11438;52.044;8.716;2022-10-31T07:55:36;15.20;97.90
22544;DHT22;11438;52.044;8.716;2022-10-31T07:58:14;15.20;98.00
22544;DHT22;11438;52.044;8.716;2022-10-31T08:00:41;15.30;98.20
22544;DHT22;11438;52.044;8.716;2022-10-31T08:03:10;15.40;98.20
22544;DHT22;11438;52.044;8.716;2022-10-31T08:05:36;15.40;98.30
22544;DHT22;11438;52.044;8.716;2022-10-31T08:08:03;15.50;98.40
22544;DHT22;11438;52.044;8.716;2022-10-31T08:10:29;15.60;98.60
22544;DHT22;11438;52.044;8.716;2022-10-31T08:15:28;15.70;98.80
22544;DHT22;11438;52.044;8.716;2022-10-31T08:17:54;15.80;98.80
22544;DHT22;11438;52.044;8.716;2022-10-31T08:20:21;15.90;98.90
22544;DHT22;11438;52.044;8.716;2022-10-31T08:23:00;16.00;99.00
22544;DHT22;11438;52.044;8.716;2022-10-31T08:25:27;16.00;99.10
22544;DHT22;11438;52.044;8.716;2022-10-31T08:27:55;16.10;99.00
22544;DHT22;11438;52.044;8.716;2022-10-31T08:30:22;16.20;99.00
22544;DHT22;11438;52.044;8.716;2022-10-31T08:32:57;16.20;99.00
22544;DHT22;11438;52.044;8.716;2022-10-31T08:35:23;16.30;99.10
22544;DHT22;11438;52.044;8.716;2022-10-31T08:37:53;16.40;99.10
22544;DHT22;11438;52.044;8.716;2022-10-31T08:40:19;16.40;99.00
22544;DHT22;11438;52.044;8.716;2022-10-31T08:42:45;16.40;98.90
22544;DHT22;11438;52.044;8.716;2022-10-31T08:45:10;16.50;98.90
22544;DHT22;11438;52.044;8.716;2022-10-31T08:47:36;16.60;99.00
22544;DHT22;11438;52.044;8.716;2022-10-31T08:50:02;16.60;99.00
22544;DHT22;11438;52.044;8.716;2022-10-31T08:52:27;16.60;98.90
22544;DHT22;11438;52.044;8.716;2022-10-31T08:54:53;16.70;98.90
22544;DHT22;11438;52.044;8.716;2022-10-31T08:57:18;16.70;98.80
22544;DHT22;11438;52.044;8.716;2022-10-31T08:59:44;16.70;98.70
22544;DHT22;11438;52.044;8.716;2022-10-31T09:02:09;16.70;98.70
22544;DHT22;11438;52.044;8.716;2022-10-31T09:04:35;16.80;98.70
22544;DHT22;11438;52.044;8.716;2022-10-31T09:07:00;16.80;98.80
22544;DHT22;11438;52.044;8.716;2022-10-31T09:09:26;16.80;98.90
22544;DHT22;11438;52.044;8.716;2022-10-31T09:11:51;16.80;98.80
22544;DHT22;11438;52.044;8.716;2022-10-31T09:14:17;16.80;98.90
22544;DHT22;11438;52.044;8.716;2022-10-31T09:16:42;16.80;98.90
22544;DHT22;11438;52.044;8.716;2022-10-31T09:19:08;16.80;98.90
22544;DHT22;11438;52.044;8.716;2022-10-31T09:21:33;16.80;99.10
22544;DHT22;11438;52.044;8.716;2022-10-31T09:23:59;16.90;99.20
22544;DHT22;11438;52.044;8.716;2022-10-31T09:26:24;16.90;99.20
22544;DHT22;11438;52.044;8.716;2022-10-31T09:28:50;16.90;99.20
22544;DHT22;11438;52.044;8.716;2022-10-31T09:31:15;16.90;99.20
22544;DHT22;11438;52.044;8.716;2022-10-31T09:33:41;16.90;99.30
22544;DHT22;11438;52.044;8.716;2022-10-31T09:36:07;17.00;99.40
22544;DHT22;11438;52.044;8.716;2022-10-31T09:38:33;17.00;99.40
22544;DHT22;11438;52.044;8.716;2022-10-31T09:41:19;17.10;99.50
22544;DHT22;11438;52.044;8.716;2022-10-31T09:44:08;17.10;99.60
22544;DHT22;11438;52.044;8.716;2022-10-31T09:49:37;17.20;99.80
22544;DHT22;11438;52.044;8.716;2022-10-31T09:52:24;17.20;99.80
22544;DHT22;11438;52.044;8.716;2022-10-31T09:54:59;17.30;99.90
22544;DHT22;11438;52.044;8.716;2022-10-31T09:57:31;17.30;99.90
22544;DHT22;11438;52.044;8.716;2022-10-31T09:59:58;17.40;99.90
22544;DHT22;11438;52.044;8.716;2022-10-31T10:02:32;17.40;99.90
22544;DHT22;11438;52.044;8.716;2022-10-31T10:05:11;17.50;99.90
22544;DHT22;11438;52.044;8.716;2022-10-31T10:13:24;17.60;99.90
22544;DHT22;11438;52.044;8.716;2022-10-31T10:16:04;17.60;99.90
22544;DHT22;11438;52.044;8.716;2022-10-31T10:18:51;17.70;99.90
22544;DHT22;11438;52.044;8.716;2022-10-31T10:32:24;17.90;99.90
22544;DHT22;11438;52.044;8.716;2022-10-31T10:34:54;18.00;99.90
22544;DHT22;11438;52.044;8.716;2022-10-31T10:37:42;18.00;99.90
22544;DHT22;11438;52.044;8.716;2022-10-31T10:42:43;18.10;99.90
22544;DHT22;11438;52.044;8.716;2022-10-31T10:45:28;18.20;99.90
22544;DHT22;11438;52.044;8.716;2022-10-31T10:50:53;18.30;99.90
22544;DHT22;11438;52.044;8.716;2022-10-31T10:53:28;18.40;99.90
22544;DHT22;11438;52.044;8.716;2022-10-31T10:58:31;18.50;99.90
22544;DHT22;11438;52.044;8.716;2022-10-31T11:00:57;18.60;99.80
22544;DHT22;11438;52.044;8.716;2022-10-31T11:03:22;18.60;99.80
22544;DHT22;11438;52.044;8.716;2022-10-31T11:05:54;18.70;99.60
22544;DHT22;11438;52.044;8.716;2022-10-31T11:08:34;18.70;99.50
22544;DHT22;11438;52.044;8.716;2022-10-31T11:11:24;18.80;99.40
22544;DHT22;11438;52.044;8.716;2022-10-31T11:13:57;18.90;99.40
22544;DHT22;11438;52.044;8.716;2022-10-31T11:18:51;19.00;99.40
22544;DHT22;11438;52.044;8.716;2022-10-31T11:21:30;19.10;99.40
22544;DHT22;11438;52.044;8.716;2022-10-31T11:26:37;19.20;99.00
22544;DHT22;11438;52.044;8.716;2022-10-31T11:29:04;19.30;98.90
22544;DHT22;11438;52.044;8.716;2022-10-31T11:31:32;19.30;98.80
22544;DHT22;11438;52.044;8.716;2022-10-31T11:34:01;19.40;98.80
22544;DHT22;11438;52.044;8.716;2022-10-31T11:36:31;19.50;98.70
22544;DHT22;11438;52.044;8.716;2022-10-31T11:38:59;19.50;98.60
22544;DHT22;11438;52.044;8.716;2022-10-31T11:41:35;19.50;98.40
22544;DHT22;11438;52.044;8.716;2022-10-31T11:44:15;19.60;98.10
22544;DHT22;11438;52.044;8.716;2022-10-31T11:49:18;19.70;98.00
22544;DHT22;11438;52.044;8.716;2022-10-31T11:51:48;19.70;97.80
22544;DHT22;11438;52.044;8.716;2022-10-31T11:54:29;19.70;97.80
22544;DHT22;11438;52.044;8.716;2022-10-31T11:56:56;19.80;97.70
22544;DHT22;11438;52.044;8.716;2022-10-31T11:59:23;19.80;97.60
22544;DHT22;11438;52.044;8.716;2022-10-31T12:01:51;19.90;97.50
22544;DHT22;11438;52.044;8.716;2022-10-31T12:04:17;19.90;97.50
22544;DHT22;11438;52.044;8.716;2022-10-31T12:06:44;19.90;97.60
22544;DHT22;11438;52.044;8.716;2022-10-31T12:09:23;19.90;97.50
22544;DHT22;11438;52.044;8.716;2022-10-31T12:17:54;20.00;97.30
22544;DHT22;11438;52.044;8.716;2022-10-31T12:23:36;20.10;97.10
22544;DHT22;11438;52.044;8.716;2022-10-31T12:26:18;20.10;97.20
22544;DHT22;11438;52.044;8.716;2022-10-31T12:45:32;20.40;96.90
22544;DHT22;11438;52.044;8.716;2022-10-31T12:59:32;20.50;96.50
22544;DHT22;11438;52.044;8.716;2022-10-31T13:02:15;20.50;96.50
22544;DHT22;11438;52.044;8.716;2022-10-31T13:07:59;20.50;96.50
22544;DHT22;11438;52.044;8.716;2022-10-31T13:10:32;20.60;96.50
22544;DHT22;11438;52.044;8.716;2022-10-31T13:13:22;20.60;96.60
22544;DHT22;11438;52.044;8.716;2022-10-31T13:15:59;20.60;96.50
22544;DHT22;11438;52.044;8.716;2022-10-31T13:19:03;20.60;96.50
22544;DHT22;11438;52.044;8.716;2022-10-31T13:21:31;20.60;96.30
22544;DHT22;11438;52.044;8.716;2022-10-31T13:24:04;20.60;96.30
22544;DHT22;11438;52.044;8.716;2022-10-31T13:26:47;20.60;96.40
22544;DHT22;11438;52.044;8.716;2022-10-31T13:29:27;20.60;96.40
22544;DHT22;11438;52.044;8.716;2022-10-31T13:31:54;20.70;96.30
22544;DHT22;11438;52.044;8.716;2022-10-31T13:34:44;20.70;96.20
22544;DHT22;11438;52.044;8.716;2022-10-31T13:37:25;20.70;96.10
22544;DHT22;11438;52.044;8.716;2022-10-31T13:42:58;20.70;96.20
22544;DHT22;11438;52.044;8.716;2022-10-31T13:45:26;20.80;96.20
22544;DHT22;11438;52.044;8.716;2022-10-31T13:48:00;20.80;96.20
22544;DHT22;11438;52.044;8.716;2022-10-31T13:50:31;20.80;96.10
22544;DHT22;11438;52.044;8.716;2022-10-31T13:53:11;20.80;96.10
22544;DHT22;11438;52.044;8.716;2022-10-31T13:55:46;20.80;96.10
22544;DHT22;11438;52.044;8.716;2022-10-31T13:58:29;20.90;96.20
22544;DHT22;11438;52.044;8.716;2022-10-31T14:01:21;20.90;96.20
22544;DHT22;11438;52.044;8.716;2022-10-31T14:09:33;21.00;96.00
22544;DHT22;11438;52.044;8.716;2022-10-31T14:12:03;21.00;96.00
22544;DHT22;11438;52.044;8.716;2022-10-31T14:14:39;21.00;96.10
22544;DHT22;11438;52.044;8.716;2022-10-31T14:17:17;21.00;96.10
22544;DHT22;11438;52.044;8.716;2022-10-31T14:19:56;21.00;96.20
22544;DHT22;11438;52.044;8.716;2022-10-31T14:22:23;21.00;96.10
22544;DHT22;11438;52.044;8.716;2022-10-31T14:24:48;21.00;96.10
22544;DHT22;11438;52.044;8.716;2022-10-31T14:29:46;21.00;96.00
22544;DHT22;11438;52.044;8.716;2022-10-31T14:51:16;20.90;96.00
22544;DHT22;11438;52.044;8.716;2022-10-31T14:53:52;20.90;96.00
22544;DHT22;11438;52.044;8.716;2022-10-31T14:56:24;20.80;96.00
22544;DHT22;11438;52.044;8.716;2022-10-31T14:58:50;20.80;96.00
22544;DHT22;11438;52.044;8.716;2022-10-31T15:01:29;20.80;96.10
22544;DHT22;11438;52.044;8.716;2022-10-31T15:04:01;20.80;96.00
22544;DHT22;11438;52.044;8.716;2022-10-31T15:06:31;20.80;96.00
22544;DHT22;11438;52.044;8.716;2022-10-31T15:09:01;20.80;95.90
22544;DHT22;11438;52.044;8.716;2022-10-31T15:11:27;20.70;96.00
22544;DHT22;11438;52.044;8.716;2022-10-31T15:13:55;20.70;96.00
22544;DHT22;11438;52.044;8.716;2022-10-31T15:16:23;20.70;96.00
22544;DHT22;11438;52.044;8.716;2022-10-31T15:19:02;20.60;95.90
22544;DHT22;11438;52.044;8.716;2022-10-31T15:21:28;20.60;95.90
22544;DHT22;11438;52.044;8.716;2022-10-31T15:23:57;20.60;95.90
22544;DHT22;11438;52.044;8.716;2022-10-31T15:26:31;20.60;95.90
22544;DHT22;11438;52.044;8.716;2022-10-31T15:29:05;20.60;95.90
22544;DHT22;11438;52.044;8.716;2022-10-31T15:31:31;20.50;95.90
22544;DHT22;11438;52.044;8.716;2022-10-31T15:34:05;20.50;95.90
22544;DHT22;11438;52.044;8.716;2022-10-31T15:36:32;20.50;95.80
22544;DHT22;11438;52.044;8.716;2022-10-31T15:38:58;20.50;95.70
22544;DHT22;11438;52.044;8.716;2022-10-31T15:41:56;20.50;95.70
22544;DHT22;11438;52.044;8.716;2022-10-31T15:44:28;20.50;95.70
22544;DHT22;11438;52.044;8.716;2022-10-31T15:49:38;20.40;95.70
22544;DHT22;11438;52.044;8.716;2022-10-31T15:54:46;20.40;95.80
22544;DHT22;11438;52.044;8.716;2022-10-31T15:57:13;20.40;95.90
22544;DHT22;11438;52.044;8.716;2022-10-31T15:59:41;20.30;96.00
22544;DHT22;11438;52.044;8.716;2022-10-31T16:02:11;20.30;96.20
22544;DHT22;11438;52.044;8.716;2022-10-31T16:04:37;20.30;96.30
22544;DHT22;11438;52.044;8.716;2022-10-31T16:07:14;20.30;96.30
22544;DHT22;11438;52.044;8.716;2022-10-31T16:12:16;20.20;96.30
22544;DHT22;11438;52.044;8.716;2022-10-31T16:14:42;20.20;96.30
22544;DHT22;11438;52.044;8.716;2022-10-31T16:17:15;20.20;96.40
22544;DHT22;11438;52.044;8.716;2022-10-31T16:19:50;20.20;96.40
22544;DHT22;11438;52.044;8.716;2022-10-31T16:22:23;20.20;96.40
22544;DHT22;11438;52.044;8.716;2022-10-31T16:25:37;20.20;96.50
22544;DHT22;11438;52.044;8.716;2022-10-31T16:27:38;20.20;96.50
22544;DHT22;11438;52.044;8.716;2022-10-31T16:30:36;20.10;96.40
22544;DHT22;11438;52.044;8.716;2022-10-31T16:33:21;20.10;96.50
22544;DHT22;11438;52.044;8.716;2022-10-31T16:35:47;20.10;96.50
22544;DHT22;11438;52.044;8.716;2022-10-31T16:38:13;20.00;96.50
22544;DHT22;11438;52.044;8.716;2022-10-31T16:40:39;20.00;96.50
22544;DHT22;11438;52.044;8.716;2022-10-31T16:43:10;20.00;96.50
22544;DHT22;11438;52.044;8.716;2022-10-31T16:45:36;20.00;96.50
22544;DHT22;11438;52.044;8.716;2022-10-31T16:48:04;20.00;96.50
22544;DHT22;11438;52.044;8.716;2022-10-31T16:50:30;19.90;96.50
22544;DHT22;11438;52.044;8.716;2022-10-31T16:52:56;19.90;96.50
22544;DHT22;11438;52.044;8.716;2022-10-31T16:55:22;19.90;96.50
22544;DHT22;11438;52.044;8.716;2022-10-31T16:57:50;19.90;96.50
22544;DHT22;11438;52.044;8.716;2022-10-31T17:00:21;19.90;96.60
22544;DHT22;11438;52.044;8.716;2022-10-31T17:02:49;19.90;96.60
22544;DHT22;11438;52.044;8.716;2022-10-31T17:05:17;19.90;96.60
22544;DHT22;11438;52.044;8.716;2022-10-31T17:07:43;19.80;96.60
22544;DHT22;11438;52.044;8.716;2022-10-31T17:10:10;19.80;96.60
22544;DHT22;11438;52.044;8.716;2022-10-31T17:12:36;19.80;96.60
22544;DHT22;11438;52.044;8.716;2022-10-31T17:15:02;19.80;96.60
22544;DHT22;11438;52.044;8.716;2022-10-31T17:17:28;19.80;96.60
22544;DHT22;11438;52.044;8.716;2022-10-31T17:19:54;19.80;96.50
22544;DHT22;11438;52.044;8.716;2022-10-31T17:22:19;19.80;96.50
22544;DHT22;11438;52.044;8.716;2022-10-31T17:24:45;19.70;96.50
22544;DHT22;11438;52.044;8.716;2022-10-31T17:27:10;19.80;96.60
22544;DHT22;11438;52.044;8.716;2022-10-31T17:29:36;19.80;96.60
22544;DHT22;11438;52.044;8.716;2022-10-31T17:32:01;19.70;96.50
22544;DHT22;11438;52.044;8.716;2022-10-31T17:34:28;19.70;96.50
22544;DHT22;11438;52.044;8.716;2022-10-31T17:36:54;19.70;96.50
22544;DHT22;11438;52.044;8.716;2022-10-31T17:39:20;19.70;96.50
22544;DHT22;11438;52.044;8.716;2022-10-31T17:41:49;19.60;96.50
22544;DHT22;11438;52.044;8.716;2022-10-31T17:44:15;19.70;96.60
22544;DHT22;11438;52.044;8.716;2022-10-31T17:46:40;19.60;96.50
22544;DHT22;11438;52.044;8.716;2022-10-31T17:49:06;19.60;96.50
22544;DHT22;11438;52.044;8.716;2022-10-31T17:51:33;19.60;96.50
22544;DHT22;11438;52.044;8.716;2022-10-31T17:53:59;19.60;96.50
22544;DHT22;11438;52.044;8.716;2022-10-31T17:56:25;19.60;96.50
22544;DHT22;11438;52.044;8.716;2022-10-31T17:58:50;19.60;96.50